| time (UTC) | temp C | wind direction | speed KPH | gust KPH | rain 1hr cm | rain 24hr cm | rain mn cm | humidity % | barometer mb |
| 20260502195431 | 13 | 0.0 | 0.0 | 0.00 | 0.00 | 0.00 | 48 | 1017.8 | |
| 20260502194431 | 14 | 0.0 | 0.0 | 0.00 | 0.00 | 0.00 | 46 | 1017.8 | |
| 20260502193431 | 16 | 0.0 | 0.0 | 0.00 | 0.00 | 0.00 | 44 | 1017.8 | |
| 20260502192431 | 16 | 0.0 | 0.0 | 0.00 | 0.00 | 0.00 | 43 | 1017.8 | |
| 20260502191431 | 17 | 0.0 | 0.0 | 0.00 | 0.00 | 0.00 | 42 | 1017.7 | |
| 20260502190431 | 17 | 0.0 | 0.0 | 0.00 | 0.00 | 0.00 | 41 | 1017.7 | |
| 20260502185431 | 17 | 0.0 | 0.0 | 0.00 | 0.00 | 0.00 | 39 | 1017.7 | |
| 20260502184431 | 18 | 0.0 | 0.0 | 0.00 | 0.00 | 0.00 | 37 | 1017.6 | |
| 20260502183431 | 19 | 0.0 | 0.0 | 0.00 | 0.00 | 0.00 | 37 | 1017.5 | |
| 20260502182431 | 20 | 0.0 | 0.0 | 0.00 | 0.00 | 0.00 | 38 | 1017.5 | |
| 20260502181431 | 20 | 0.0 | 0.0 | 0.00 | 0.00 | 0.00 | 37 | 1017.5 | |
| 20260502180432 | 20 | 0.0 | 0.0 | 0.00 | 0.00 | 0.00 | 35 | 1017.5 | |
| 20260502163431 | 23 | 0.0 | 0.0 | 0.00 | 0.00 | 0.00 | 27 | 1017.9 | |
| 20260502162431 | 23 | 0.0 | 0.0 | 0.00 | 0.00 | 0.00 | 27 | 1018.0 | |
| 20260502161431 | 23 | 0.0 | 0.0 | 0.00 | 0.00 | 0.00 | 26 | 1018.1 | |
| 20260502160431 | 23 | 0.0 | 0.0 | 0.00 | 0.00 | 0.00 | 26 | 1018.3 | |
| 20260502151431 | 26 | 0.0 | 0.0 | 0.00 | 0.00 | 0.00 | 22 | 1018.9 | |
| 20260502150431 | 25 | 0.0 | 0.0 | 0.00 | 0.00 | 0.00 | 22 | 1019.1 | |
| 20260502130429 | 25 | 0.0 | 0.0 | 0.00 | 0.00 | 0.00 | 20 | 1020.6 | |
| 20260502123430 | 24 | 0.0 | 0.0 | 0.00 | 0.00 | 0.00 | 20 | 1021.1 | |
| 20260502122430 | 24 | 0.0 | 0.0 | 0.00 | 0.00 | 0.00 | 23 | 1021.2 | |
| 20260502121429 | 23 | 0.0 | 0.0 | 0.00 | 0.00 | 0.00 | 23 | 1021.3 | |
| 20260502120429 | 23 | 0.0 | 0.0 | 0.00 | 0.00 | 0.00 | 23 | 1021.5 | |
| 20260502115429 | 23 | 0.0 | 0.0 | 0.00 | 0.00 | 0.00 | 24 | 1021.6 | |
| 20260502114429 | 23 | 0.0 | 0.0 | 0.00 | 0.00 | 0.00 | 23 | 1021.7 | |
| 20260502113429 | 23 | 0.0 | 0.0 | 0.00 | 0.00 | 0.00 | 24 | 1021.9 | |
| 20260502112429 | 23 | 0.0 | 0.0 | 0.00 | 0.00 | 0.00 | 25 | 1022.0 | |
| 20260502111429 | 23 | 0.0 | 0.0 | 0.00 | 0.00 | 0.00 | 25 | 1022.2 | |
| 20260502110430 | 23 | 0.0 | 0.0 | 0.00 | 0.00 | 0.00 | 24 | 1022.3 | |
| 20260502105429 | 23 | 0.0 | 0.0 | 0.00 | 0.00 | 0.00 | 22 | 1022.4 | |
| 20260502104429 | 23 | 0.0 | 0.0 | 0.00 | 0.00 | 0.00 | 22 | 1022.5 | |
| 20260502103429 | 22 | 0.0 | 0.0 | 0.00 | 0.00 | 0.00 | 25 | 1022.6 | |
| 20260502102429 | 23 | 0.0 | 0.0 | 0.00 | 0.00 | 0.00 | 25 | 1022.7 | |
| 20260502101429 | 23 | 0.0 | 0.0 | 0.00 | 0.00 | 0.00 | 25 | 1022.9 | |
| 20260502100429 | 22 | 0.0 | 0.0 | 0.00 | 0.00 | 0.00 | 25 | 1022.9 | |
| 20260502091429 | 21 | 0.0 | 0.0 | 0.00 | 0.00 | 0.00 | 31 | 1023.7 | |
| 20260502090429 | 21 | 0.0 | 0.0 | 0.00 | 0.00 | 0.00 | 30 | 1023.8 | |
| 20260502071429 | 15 | 0.0 | 0.0 | 0.00 | 0.00 | 0.00 | 51 | 1024.7 | |
| 20260502070429 | 14 | 0.0 | 0.0 | 0.00 | 0.00 | 0.00 | 53 | 1024.7 | |
| 20260502065429 | 12 | 0.0 | 0.0 | 0.00 | 0.00 | 0.00 | 56 | 1024.7 | |
| 20260502064429 | 12 | 0.0 | 0.0 | 0.00 | 0.00 | 0.00 | 58 | 1024.7 | |
| 20260502063429 | 11 | 0.0 | 0.0 | 0.00 | 0.00 | 0.00 | 61 | 1024.8 | |
| 20260502062429 | 11 | 0.0 | 0.0 | 0.00 | 0.00 | 0.00 | 63 | 1024.8 | |
| 20260502061429 | 10 | 0.0 | 0.0 | 0.00 | 0.00 | 0.00 | 66 | 1024.8 | |
| 20260502060429 | 9 | 0.0 | 0.0 | 0.00 | 0.00 | 0.00 | 68 | 1024.9 | |
| 20260502055429 | 8 | 0.0 | 0.0 | 0.00 | 0.00 | 0.00 | 71 | 1024.9 | |
| 20260502054429 | 8 | 0.0 | 0.0 | 0.00 | 0.00 | 0.00 | 71 | 1024.9 | |
| 20260502053429 | 7 | 0.0 | 0.0 | 0.00 | 0.00 | 0.00 | 75 | 1025.0 | |
| 20260502052429 | 7 | 0.0 | 0.0 | 0.00 | 0.00 | 0.00 | 79 | 1025.1 | |
| 20260502051429 | 6 | 0.0 | 0.0 | 0.00 | 0.00 | 0.00 | 82 | 1025.0 | |
| 20260502050429 | 6 | 0.0 | 0.0 | 0.00 | 0.00 | 0.00 | 87 | 1025.0 | |
| 20260502045432 | 5 | 0.0 | 0.0 | 0.00 | 0.00 | 0.00 | 91 | 1025.1 | |
| 20260502044429 | 4 | 0.0 | 0.0 | 0.00 | 0.00 | 0.00 | 93 | 1025.0 | |
| 20260502043429 | 3 | 0.0 | 0.0 | 0.00 | 0.00 | 0.00 | 95 | 1024.9 | |
| 20260502042429 | 3 | 0.0 | 0.0 | 0.00 | 0.00 | 0.00 | 90 | 1024.9 | |
| 20260502041429 | 3 | 0.0 | 0.0 | 0.00 | 0.00 | 0.00 | 89 | 1024.9 | |
| 20260502040431 | 3 | 0.0 | 0.0 | 0.00 | 0.00 | 0.00 | 85 | 1024.9 | |
| 20260502035429 | 3 | 0.0 | 0.0 | 0.00 | 0.00 | 0.00 | 85 | 1024.9 | |
| 20260502034430 | 2 | 0.0 | 0.0 | 0.00 | 0.00 | 0.00 | 83 | 1025.0 | |
| 20260502033429 | 3 | 0.0 | 0.0 | 0.00 | 0.00 | 0.00 | 81 | 1024.9 | |
| 20260502032429 | 3 | 0.0 | 0.0 | 0.00 | 0.00 | 0.00 | 83 | 1024.9 | |
| 20260502031429 | 3 | 0.0 | 0.0 | 0.00 | 0.00 | 0.00 | 84 | 1024.9 | |
| 20260502030429 | 3 | 0.0 | 0.0 | 0.00 | 0.00 | 0.00 | 87 | 1024.8 | |
| 20260502025429 | 3 | 0.0 | 0.0 | 0.00 | 0.00 | 0.00 | 86 | 1024.9 | |
| 20260502024429 | 4 | 0.0 | 0.0 | 0.00 | 0.00 | 0.00 | 81 | 1024.9 | |
| 20260502023430 | 4 | 0.0 | 0.0 | 0.00 | 0.00 | 0.00 | 84 | 1025.0 | |
| 20260502022429 | 3 | 0.0 | 0.0 | 0.00 | 0.00 | 0.00 | 91 | 1025.0 | |
| 20260502021429 | 3 | 0.0 | 0.0 | 0.00 | 0.00 | 0.00 | 91 | 1024.9 | |
| 20260502020429 | 4 | 0.0 | 0.0 | 0.00 | 0.00 | 0.00 | 81 | 1024.9 | |
| 20260502015429 | 5 | 0.0 | 0.0 | 0.00 | 0.00 | 0.00 | 83 | 1024.8 | |
| 20260502014429 | 4 | 0.0 | 0.0 | 0.00 | 0.00 | 0.00 | 82 | 1024.9 | |
| 20260502013429 | 5 | 0.0 | 0.0 | 0.00 | 0.00 | 0.00 | 80 | 1024.9 | |
| 20260502012432 | 5 | 0.0 | 0.0 | 0.00 | 0.00 | 0.00 | 76 | 1024.9 | |
| 20260502011428 | 5 | 0.0 | 0.0 | 0.00 | 0.00 | 0.00 | 72 | 1025.0 | |
| 20260502010428 | 5 | 0.0 | 0.0 | 0.00 | 0.00 | 0.00 | 72 | 1025.0 | |
| 20260502004428 | 5 | 0.0 | 0.0 | 0.00 | 0.00 | 0.00 | 77 | 1025.0 | |
| 20260502003428 | 5 | 0.0 | 0.0 | 0.00 | 0.00 | 0.00 | 78 | 1025.0 | |
| 20260502002428 | 5 | 0.0 | 0.0 | 0.00 | 0.00 | 0.00 | 78 | 1025.0 | |
| 20260502001428 | 5 | 0.0 | 0.0 | 0.00 | 0.00 | 0.00 | 71 | 1025.1 | |
| 20260502000428 | 6 | 0.0 | 0.0 | 0.00 | 0.00 | 0.00 | 70 | 1025.1 | |
| 20260501235428 | 6 | 0.0 | 0.0 | 0.00 | 0.00 | 0.00 | 71 | 1025.1 | |
| 20260501234428 | 7 | 0.0 | 0.0 | 0.00 | 0.00 | 0.00 | 73 | 1025.1 | |
| 20260501233428 | 7 | 0.0 | 0.0 | 0.00 | 0.00 | 0.00 | 71 | 1025.1 | |
| 20260501232428 | 7 | 0.0 | 0.0 | 0.00 | 0.00 | 0.00 | 73 | 1025.1 | |
| 20260501231428 | 6 | 0.0 | 0.0 | 0.00 | 0.00 | 0.00 | 73 | 1025.1 | |
| 20260501230428 | 6 | 0.0 | 0.0 | 0.00 | 0.00 | 0.00 | 72 | 1025.2 | |
| 20260501225428 | 8 | 0.0 | 0.0 | 0.00 | 0.00 | 0.00 | 63 | 1025.2 | |
| 20260501224428 | 8 | 0.0 | 0.0 | 0.00 | 0.00 | 0.00 | 62 | 1025.1 | |
| 20260501223428 | 8 | 0.0 | 0.0 | 0.00 | 0.00 | 0.00 | 61 | 1025.2 | |
| 20260501222428 | 8 | 0.0 | 0.0 | 0.00 | 0.00 | 0.00 | 63 | 1025.1 | |
| 20260501221428 | 9 | 0.0 | 0.0 | 0.00 | 0.00 | 0.00 | 59 | 1025.1 | |
| 20260501220428 | 9 | 0.0 | 0.0 | 0.00 | 0.00 | 0.00 | 59 | 1025.2 | |
| 20260501215428 | 9 | 0.0 | 0.0 | 0.00 | 0.00 | 0.00 | 60 | 1025.2 | |
| 20260501214428 | 9 | 0.0 | 0.0 | 0.00 | 0.00 | 0.00 | 59 | 1025.2 | |
| 20260501213429 | 10 | 0.0 | 0.0 | 0.00 | 0.00 | 0.00 | 56 | 1025.0 | |
| 20260501212428 | 10 | 0.0 | 0.0 | 0.00 | 0.00 | 0.00 | 55 | 1025.0 | |
| 20260501211428 | 11 | 0.0 | 0.0 | 0.00 | 0.00 | 0.00 | 54 | 1025.0 | |
| 20260501210428 | 11 | 0.0 | 0.0 | 0.00 | 0.00 | 0.00 | 55 | 1025.0 | |
| 20260501205428 | 11 | 0.0 | 0.0 | 0.00 | 0.00 | 0.00 | 56 | 1024.9 | |
| 20260501204428 | 11 | 0.0 | 0.0 | 0.00 | 0.00 | 0.00 | 54 | 1024.9 | |
| 20260501203428 | 11 | 0.0 | 0.0 | 0.00 | 0.00 | 0.00 | 53 | 1024.8 | |
| 20260501202428 | 11 | 0.0 | 0.0 | 0.00 | 0.00 | 0.00 | 54 | 1024.8 | |
| 20260501201428 | 12 | 0.0 | 0.0 | 0.00 | 0.00 | 0.00 | 50 | 1024.7 | |
| 20260501200428 | 12 | 0.0 | 0.0 | 0.00 | 0.00 | 0.00 | 48 | 1024.7 |